sensor_id;sensor_type;location;lat;lon;timestamp;P1;durP1;ratioP1;P2;durP2;ratioP2
70213;SDS011;60138;55.808;37.078;2022-08-21T00:01:02;23.88;;;12.30;;
70213;SDS011;60138;55.808;37.078;2022-08-21T00:03:30;22.95;;;13.02;;
70213;SDS011;60138;55.808;37.078;2022-08-21T00:05:56;27.50;;;13.30;;
70213;SDS011;60138;55.808;37.078;2022-08-21T00:08:21;27.98;;;13.48;;
70213;SDS011;60138;55.808;37.078;2022-08-21T00:10:47;24.20;;;15.23;;
70213;SDS011;60138;55.808;37.078;2022-08-21T00:13:13;23.38;;;13.50;;
70213;SDS011;60138;55.808;37.078;2022-08-21T00:15:39;25.92;;;14.55;;
70213;SDS011;60138;55.808;37.078;2022-08-21T00:18:06;29.27;;;14.67;;
70213;SDS011;60138;55.808;37.078;2022-08-21T00:20:34;23.58;;;14.00;;
70213;SDS011;60138;55.808;37.078;2022-08-21T00:23:00;25.80;;;15.57;;
70213;SDS011;60138;55.808;37.078;2022-08-21T00:25:26;28.65;;;15.65;;
70213;SDS011;60138;55.808;37.078;2022-08-21T00:27:53;30.05;;;16.58;;
70213;SDS011;60138;55.808;37.078;2022-08-21T00:30:20;25.43;;;14.73;;
70213;SDS011;60138;55.808;37.078;2022-08-21T00:32:47;29.95;;;15.52;;
70213;SDS011;60138;55.808;37.078;2022-08-21T00:35:15;25.48;;;17.05;;
70213;SDS011;60138;55.808;37.078;2022-08-21T00:37:42;29.47;;;17.80;;
70213;SDS011;60138;55.808;37.078;2022-08-21T00:40:11;29.95;;;17.58;;
70213;SDS011;60138;55.808;37.078;2022-08-21T00:42:39;27.75;;;16.50;;
70213;SDS011;60138;55.808;37.078;2022-08-21T00:45:05;33.20;;;17.63;;
70213;SDS011;60138;55.808;37.078;2022-08-21T00:47:32;29.77;;;17.63;;
70213;SDS011;60138;55.808;37.078;2022-08-21T00:49:58;30.67;;;18.80;;
70213;SDS011;60138;55.808;37.078;2022-08-21T00:52:25;35.42;;;19.50;;
70213;SDS011;60138;55.808;37.078;2022-08-21T00:54:54;33.63;;;18.35;;
70213;SDS011;60138;55.808;37.078;2022-08-21T00:57:24;30.60;;;19.90;;
70213;SDS011;60138;55.808;37.078;2022-08-21T00:59:53;34.20;;;18.07;;
70213;SDS011;60138;55.808;37.078;2022-08-21T01:02:23;30.48;;;19.20;;
70213;SDS011;60138;55.808;37.078;2022-08-21T01:04:49;32.72;;;19.45;;
70213;SDS011;60138;55.808;37.078;2022-08-21T01:07:16;32.80;;;18.77;;
70213;SDS011;60138;55.808;37.078;2022-08-21T01:09:42;34.47;;;22.10;;
70213;SDS011;60138;55.808;37.078;2022-08-21T01:12:08;32.83;;;20.02;;
70213;SDS011;60138;55.808;37.078;2022-08-21T01:14:34;37.00;;;21.40;;
70213;SDS011;60138;55.808;37.078;2022-08-21T01:17:00;37.65;;;22.48;;
70213;SDS011;60138;55.808;37.078;2022-08-21T01:19:27;37.40;;;22.52;;
70213;SDS011;60138;55.808;37.078;2022-08-21T01:21:53;35.53;;;21.60;;
70213;SDS011;60138;55.808;37.078;2022-08-21T01:24:19;34.05;;;21.25;;
70213;SDS011;60138;55.808;37.078;2022-08-21T01:26:45;36.97;;;21.02;;
70213;SDS011;60138;55.808;37.078;2022-08-21T01:32:10;39.33;;;22.73;;
70213;SDS011;60138;55.808;37.078;2022-08-21T01:34:41;42.75;;;21.85;;
70213;SDS011;60138;55.808;37.078;2022-08-21T01:37:09;40.17;;;24.63;;
70213;SDS011;60138;55.808;37.078;2022-08-21T01:39:36;41.42;;;24.90;;
70213;SDS011;60138;55.808;37.078;2022-08-21T01:42:02;45.50;;;25.80;;
70213;SDS011;60138;55.808;37.078;2022-08-21T01:44:29;42.63;;;25.83;;
70213;SDS011;60138;55.808;37.078;2022-08-21T01:46:55;46.03;;;24.67;;
70213;SDS011;60138;55.808;37.078;2022-08-21T01:49:24;43.97;;;25.85;;
70213;SDS011;60138;55.808;37.078;2022-08-21T01:51:50;44.63;;;28.27;;
70213;SDS011;60138;55.808;37.078;2022-08-21T01:54:15;49.13;;;28.08;;
70213;SDS011;60138;55.808;37.078;2022-08-21T01:56:44;44.90;;;27.77;;
70213;SDS011;60138;55.808;37.078;2022-08-21T01:59:12;46.38;;;27.40;;
70213;SDS011;60138;55.808;37.078;2022-08-21T02:01:38;46.35;;;28.58;;
70213;SDS011;60138;55.808;37.078;2022-08-21T02:04:04;48.92;;;28.50;;
70213;SDS011;60138;55.808;37.078;2022-08-21T02:06:30;43.77;;;27.07;;
70213;SDS011;60138;55.808;37.078;2022-08-21T02:08:56;49.03;;;28.50;;
70213;SDS011;60138;55.808;37.078;2022-08-21T02:11:22;49.05;;;28.20;;
70213;SDS011;60138;55.808;37.078;2022-08-21T02:13:48;41.57;;;27.63;;
70213;SDS011;60138;55.808;37.078;2022-08-21T02:16:14;46.58;;;28.20;;
70213;SDS011;60138;55.808;37.078;2022-08-21T02:18:40;61.28;;;29.75;;
70213;SDS011;60138;55.808;37.078;2022-08-21T02:21:06;46.30;;;28.10;;
70213;SDS011;60138;55.808;37.078;2022-08-21T02:23:32;48.70;;;28.00;;
70213;SDS011;60138;55.808;37.078;2022-08-21T02:25:58;45.03;;;27.50;;
70213;SDS011;60138;55.808;37.078;2022-08-21T02:28:26;50.03;;;29.73;;
70213;SDS011;60138;55.808;37.078;2022-08-21T02:30:52;51.35;;;30.15;;
70213;SDS011;60138;55.808;37.078;2022-08-21T02:33:18;48.03;;;29.92;;
70213;SDS011;60138;55.808;37.078;2022-08-21T02:35:45;44.60;;;27.17;;
70213;SDS011;60138;55.808;37.078;2022-08-21T02:38:13;46.65;;;28.17;;
70213;SDS011;60138;55.808;37.078;2022-08-21T02:40:42;47.63;;;29.00;;
70213;SDS011;60138;55.808;37.078;2022-08-21T02:43:09;50.88;;;28.23;;
70213;SDS011;60138;55.808;37.078;2022-08-21T02:45:35;50.93;;;29.83;;
70213;SDS011;60138;55.808;37.078;2022-08-21T02:48:06;50.05;;;28.30;;
70213;SDS011;60138;55.808;37.078;2022-08-21T02:50:37;49.58;;;28.45;;
70213;SDS011;60138;55.808;37.078;2022-08-21T02:53:13;46.78;;;28.20;;
70213;SDS011;60138;55.808;37.078;2022-08-21T02:55:40;52.28;;;29.75;;
70213;SDS011;60138;55.808;37.078;2022-08-21T02:58:06;43.77;;;26.33;;
70213;SDS011;60138;55.808;37.078;2022-08-21T03:00:33;51.40;;;30.88;;
70213;SDS011;60138;55.808;37.078;2022-08-21T03:03:01;46.95;;;29.23;;
70213;SDS011;60138;55.808;37.078;2022-08-21T03:05:28;49.10;;;28.73;;
70213;SDS011;60138;55.808;37.078;2022-08-21T03:07:55;49.17;;;27.75;;
70213;SDS011;60138;55.808;37.078;2022-08-21T03:10:21;46.20;;;27.65;;
70213;SDS011;60138;55.808;37.078;2022-08-21T03:12:47;49.28;;;29.88;;
70213;SDS011;60138;55.808;37.078;2022-08-21T03:15:15;38.37;;;26.13;;
70213;SDS011;60138;55.808;37.078;2022-08-21T03:17:43;47.63;;;26.52;;
70213;SDS011;60138;55.808;37.078;2022-08-21T03:20:10;47.03;;;28.70;;
70213;SDS011;60138;55.808;37.078;2022-08-21T03:22:36;45.30;;;27.95;;
70213;SDS011;60138;55.808;37.078;2022-08-21T03:25:02;48.17;;;27.97;;
70213;SDS011;60138;55.808;37.078;2022-08-21T03:27:29;43.67;;;26.63;;
70213;SDS011;60138;55.808;37.078;2022-08-21T03:29:55;48.10;;;27.20;;
70213;SDS011;60138;55.808;37.078;2022-08-21T03:32:21;43.70;;;27.23;;
70213;SDS011;60138;55.808;37.078;2022-08-21T03:34:47;43.10;;;27.15;;
70213;SDS011;60138;55.808;37.078;2022-08-21T03:37:12;45.40;;;26.30;;
70213;SDS011;60138;55.808;37.078;2022-08-21T03:39:39;48.95;;;26.80;;
70213;SDS011;60138;55.808;37.078;2022-08-21T03:42:05;41.72;;;26.55;;
70213;SDS011;60138;55.808;37.078;2022-08-21T03:44:32;41.17;;;25.80;;
70213;SDS011;60138;55.808;37.078;2022-08-21T03:46:58;43.50;;;25.13;;
70213;SDS011;60138;55.808;37.078;2022-08-21T03:49:24;47.13;;;25.42;;
70213;SDS011;60138;55.808;37.078;2022-08-21T03:51:50;42.55;;;25.10;;
70213;SDS011;60138;55.808;37.078;2022-08-21T03:54:16;39.57;;;23.83;;
70213;SDS011;60138;55.808;37.078;2022-08-21T03:56:42;39.75;;;24.58;;
70213;SDS011;60138;55.808;37.078;2022-08-21T03:59:08;42.70;;;24.35;;
70213;SDS011;60138;55.808;37.078;2022-08-21T04:01:34;40.93;;;24.00;;
70213;SDS011;60138;55.808;37.078;2022-08-21T04:04:00;41.50;;;22.65;;
70213;SDS011;60138;55.808;37.078;2022-08-21T04:06:26;41.25;;;23.48;;
70213;SDS011;60138;55.808;37.078;2022-08-21T04:08:52;34.73;;;21.67;;
70213;SDS011;60138;55.808;37.078;2022-08-21T04:11:19;36.90;;;22.10;;
70213;SDS011;60138;55.808;37.078;2022-08-21T04:13:44;38.35;;;22.88;;
70213;SDS011;60138;55.808;37.078;2022-08-21T04:16:11;38.50;;;22.88;;
70213;SDS011;60138;55.808;37.078;2022-08-21T04:18:37;36.63;;;23.47;;
70213;SDS011;60138;55.808;37.078;2022-08-21T04:21:04;38.28;;;23.33;;
70213;SDS011;60138;55.808;37.078;2022-08-21T04:23:31;38.88;;;22.05;;
70213;SDS011;60138;55.808;37.078;2022-08-21T04:25:56;40.45;;;21.58;;
70213;SDS011;60138;55.808;37.078;2022-08-21T04:28:23;38.50;;;21.27;;
70213;SDS011;60138;55.808;37.078;2022-08-21T04:30:52;40.70;;;21.23;;
70213;SDS011;60138;55.808;37.078;2022-08-21T04:33:18;31.90;;;20.55;;
70213;SDS011;60138;55.808;37.078;2022-08-21T04:35:45;32.25;;;20.55;;
70213;SDS011;60138;55.808;37.078;2022-08-21T04:38:11;32.22;;;19.95;;
70213;SDS011;60138;55.808;37.078;2022-08-21T04:40:37;35.88;;;20.80;;
70213;SDS011;60138;55.808;37.078;2022-08-21T04:43:06;32.42;;;19.95;;
70213;SDS011;60138;55.808;37.078;2022-08-21T04:45:42;33.78;;;18.92;;
70213;SDS011;60138;55.808;37.078;2022-08-21T04:48:11;33.25;;;20.70;;
70213;SDS011;60138;55.808;37.078;2022-08-21T04:50:45;33.83;;;20.65;;
70213;SDS011;60138;55.808;37.078;2022-08-21T04:53:19;31.75;;;19.42;;
70213;SDS011;60138;55.808;37.078;2022-08-21T04:55:50;39.45;;;20.92;;
70213;SDS011;60138;55.808;37.078;2022-08-21T04:58:17;31.63;;;18.10;;
70213;SDS011;60138;55.808;37.078;2022-08-21T05:00:45;29.00;;;17.80;;
70213;SDS011;60138;55.808;37.078;2022-08-21T05:03:12;31.80;;;18.13;;
70213;SDS011;60138;55.808;37.078;2022-08-21T05:05:42;30.77;;;18.75;;
70213;SDS011;60138;55.808;37.078;2022-08-21T05:08:09;29.02;;;18.58;;
70213;SDS011;60138;55.808;37.078;2022-08-21T05:10:39;29.10;;;16.80;;
70213;SDS011;60138;55.808;37.078;2022-08-21T05:13:05;31.27;;;17.95;;
70213;SDS011;60138;55.808;37.078;2022-08-21T05:15:31;29.65;;;17.80;;
70213;SDS011;60138;55.808;37.078;2022-08-21T05:17:57;29.40;;;17.87;;
70213;SDS011;60138;55.808;37.078;2022-08-21T05:20:23;31.88;;;17.92;;
70213;SDS011;60138;55.808;37.078;2022-08-21T05:22:49;26.07;;;16.53;;
70213;SDS011;60138;55.808;37.078;2022-08-21T05:25:14;27.40;;;18.20;;
70213;SDS011;60138;55.808;37.078;2022-08-21T05:27:41;28.88;;;16.05;;
70213;SDS011;60138;55.808;37.078;2022-08-21T05:30:07;26.50;;;16.57;;
70213;SDS011;60138;55.808;37.078;2022-08-21T05:32:34;29.25;;;16.95;;
70213;SDS011;60138;55.808;37.078;2022-08-21T05:35:01;33.88;;;15.75;;
70213;SDS011;60138;55.808;37.078;2022-08-21T05:37:28;24.55;;;15.18;;
70213;SDS011;60138;55.808;37.078;2022-08-21T05:39:54;30.17;;;17.40;;
70213;SDS011;60138;55.808;37.078;2022-08-21T05:42:20;26.05;;;16.90;;
70213;SDS011;60138;55.808;37.078;2022-08-21T05:44:46;28.87;;;16.17;;
70213;SDS011;60138;55.808;37.078;2022-08-21T05:47:12;25.92;;;14.90;;
70213;SDS011;60138;55.808;37.078;2022-08-21T05:49:39;28.05;;;16.35;;
70213;SDS011;60138;55.808;37.078;2022-08-21T05:52:05;26.73;;;15.33;;
70213;SDS011;60138;55.808;37.078;2022-08-21T05:54:31;25.13;;;14.57;;
70213;SDS011;60138;55.808;37.078;2022-08-21T05:56:56;22.53;;;14.13;;
70213;SDS011;60138;55.808;37.078;2022-08-21T05:59:23;26.23;;;14.90;;
70213;SDS011;60138;55.808;37.078;2022-08-21T06:01:48;23.33;;;15.60;;
70213;SDS011;60138;55.808;37.078;2022-08-21T06:04:14;26.23;;;14.20;;
70213;SDS011;60138;55.808;37.078;2022-08-21T06:06:40;24.60;;;14.50;;
70213;SDS011;60138;55.808;37.078;2022-08-21T06:09:06;24.25;;;14.68;;
70213;SDS011;60138;55.808;37.078;2022-08-21T06:11:32;22.20;;;13.93;;
70213;SDS011;60138;55.808;37.078;2022-08-21T06:13:58;23.67;;;13.75;;
70213;SDS011;60138;55.808;37.078;2022-08-21T06:16:25;26.98;;;14.55;;
70213;SDS011;60138;55.808;37.078;2022-08-21T06:18:51;22.88;;;13.85;;
70213;SDS011;60138;55.808;37.078;2022-08-21T06:21:17;25.23;;;13.80;;
70213;SDS011;60138;55.808;37.078;2022-08-21T06:23:43;23.73;;;14.70;;
70213;SDS011;60138;55.808;37.078;2022-08-21T06:26:10;28.85;;;14.82;;
70213;SDS011;60138;55.808;37.078;2022-08-21T06:28:37;21.33;;;14.93;;
70213;SDS011;60138;55.808;37.078;2022-08-21T06:31:11;25.90;;;15.32;;
70213;SDS011;60138;55.808;37.078;2022-08-21T06:33:38;28.80;;;14.88;;
70213;SDS011;60138;55.808;37.078;2022-08-21T06:36:04;27.10;;;15.93;;
70213;SDS011;60138;55.808;37.078;2022-08-21T06:38:30;27.67;;;14.23;;
70213;SDS011;60138;55.808;37.078;2022-08-21T06:40:56;26.40;;;15.33;;
70213;SDS011;60138;55.808;37.078;2022-08-21T06:43:21;26.00;;;16.33;;
70213;SDS011;60138;55.808;37.078;2022-08-21T06:45:47;29.38;;;15.98;;
70213;SDS011;60138;55.808;37.078;2022-08-21T06:48:13;30.10;;;16.23;;
70213;SDS011;60138;55.808;37.078;2022-08-21T06:50:39;28.30;;;15.50;;
70213;SDS011;60138;55.808;37.078;2022-08-21T06:53:07;24.75;;;13.93;;
70213;SDS011;60138;55.808;37.078;2022-08-21T06:55:35;27.83;;;13.90;;
70213;SDS011;60138;55.808;37.078;2022-08-21T06:58:02;24.13;;;14.10;;
70213;SDS011;60138;55.808;37.078;2022-08-21T07:00:29;24.30;;;15.00;;
70213;SDS011;60138;55.808;37.078;2022-08-21T07:02:55;23.98;;;15.05;;
70213;SDS011;60138;55.808;37.078;2022-08-21T07:05:21;26.87;;;16.17;;
70213;SDS011;60138;55.808;37.078;2022-08-21T07:07:49;23.13;;;14.97;;
70213;SDS011;60138;55.808;37.078;2022-08-21T07:10:15;27.02;;;13.98;;
70213;SDS011;60138;55.808;37.078;2022-08-21T07:12:41;25.80;;;13.40;;
70213;SDS011;60138;55.808;37.078;2022-08-21T07:15:07;24.37;;;13.20;;
70213;SDS011;60138;55.808;37.078;2022-08-21T07:17:33;19.70;;;11.32;;
70213;SDS011;60138;55.808;37.078;2022-08-21T07:19:59;22.83;;;11.93;;
70213;SDS011;60138;55.808;37.078;2022-08-21T07:22:25;18.40;;;10.57;;
70213;SDS011;60138;55.808;37.078;2022-08-21T07:24:50;19.30;;;10.35;;
70213;SDS011;60138;55.808;37.078;2022-08-21T07:27:16;20.87;;;11.00;;
70213;SDS011;60138;55.808;37.078;2022-08-21T07:29:42;20.55;;;11.15;;
70213;SDS011;60138;55.808;37.078;2022-08-21T07:32:07;22.80;;;12.87;;
70213;SDS011;60138;55.808;37.078;2022-08-21T07:34:33;21.77;;;11.25;;
70213;SDS011;60138;55.808;37.078;2022-08-21T07:36:59;17.83;;;9.50;;
70213;SDS011;60138;55.808;37.078;2022-08-21T07:39:25;14.77;;;9.02;;
70213;SDS011;60138;55.808;37.078;2022-08-21T07:41:51;17.35;;;10.07;;
70213;SDS011;60138;55.808;37.078;2022-08-21T07:44:17;20.47;;;9.47;;
70213;SDS011;60138;55.808;37.078;2022-08-21T07:46:42;19.20;;;9.13;;
70213;SDS011;60138;55.808;37.078;2022-08-21T07:49:08;19.57;;;9.90;;
70213;SDS011;60138;55.808;37.078;2022-08-21T07:51:34;18.42;;;9.63;;
70213;SDS011;60138;55.808;37.078;2022-08-21T07:54:00;18.57;;;10.27;;
70213;SDS011;60138;55.808;37.078;2022-08-21T07:56:26;17.40;;;10.47;;
70213;SDS011;60138;55.808;37.078;2022-08-21T07:58:53;17.65;;;9.90;;
70213;SDS011;60138;55.808;37.078;2022-08-21T08:01:19;17.13;;;10.10;;
70213;SDS011;60138;55.808;37.078;2022-08-21T08:03:45;17.42;;;10.00;;
70213;SDS011;60138;55.808;37.078;2022-08-21T08:06:12;18.37;;;9.90;;
70213;SDS011;60138;55.808;37.078;2022-08-21T08:08:38;19.15;;;10.48;;
70213;SDS011;60138;55.808;37.078;2022-08-21T08:11:05;22.40;;;11.10;;
70213;SDS011;60138;55.808;37.078;2022-08-21T08:13:31;20.70;;;12.30;;
70213;SDS011;60138;55.808;37.078;2022-08-21T08:15:56;23.77;;;12.93;;
70213;SDS011;60138;55.808;37.078;2022-08-21T08:18:22;26.42;;;12.95;;
70213;SDS011;60138;55.808;37.078;2022-08-21T08:20:48;22.97;;;13.63;;
70213;SDS011;60138;55.808;37.078;2022-08-21T08:23:14;26.48;;;13.60;;
70213;SDS011;60138;55.808;37.078;2022-08-21T08:25:41;20.42;;;12.73;;
70213;SDS011;60138;55.808;37.078;2022-08-21T08:28:07;22.87;;;13.50;;
70213;SDS011;60138;55.808;37.078;2022-08-21T08:30:33;20.08;;;11.50;;
70213;SDS011;60138;55.808;37.078;2022-08-21T08:32:59;18.35;;;12.15;;
70213;SDS011;60138;55.808;37.078;2022-08-21T08:35:25;21.75;;;12.18;;
70213;SDS011;60138;55.808;37.078;2022-08-21T08:37:51;21.20;;;12.00;;
70213;SDS011;60138;55.808;37.078;2022-08-21T08:40:32;17.90;;;11.63;;
70213;SDS011;60138;55.808;37.078;2022-08-21T08:43:11;18.48;;;11.32;;
70213;SDS011;60138;55.808;37.078;2022-08-21T08:45:38;19.92;;;11.65;;
70213;SDS011;60138;55.808;37.078;2022-08-21T08:48:08;19.05;;;13.05;;
70213;SDS011;60138;55.808;37.078;2022-08-21T08:50:41;18.00;;;11.30;;
70213;SDS011;60138;55.808;37.078;2022-08-21T08:53:14;25.45;;;12.88;;
70213;SDS011;60138;55.808;37.078;2022-08-21T08:55:45;23.42;;;12.70;;
70213;SDS011;60138;55.808;37.078;2022-08-21T08:58:23;24.77;;;13.25;;
70213;SDS011;60138;55.808;37.078;2022-08-21T09:00:52;24.20;;;13.60;;
70213;SDS011;60138;55.808;37.078;2022-08-21T09:03:21;26.53;;;12.90;;
70213;SDS011;60138;55.808;37.078;2022-08-21T09:09:14;26.80;;;15.15;;
70213;SDS011;60138;55.808;37.078;2022-08-21T09:26:21;22.05;;;13.18;;
70213;SDS011;60138;55.808;37.078;2022-08-21T09:28:40;23.83;;;13.90;;
70213;SDS011;60138;55.808;37.078;2022-08-21T09:33:47;25.80;;;14.73;;
70213;SDS011;60138;55.808;37.078;2022-08-21T09:36:22;26.10;;;14.40;;
70213;SDS011;60138;55.808;37.078;2022-08-21T09:38:53;23.23;;;14.10;;
70213;SDS011;60138;55.808;37.078;2022-08-21T09:41:27;23.00;;;13.97;;
70213;SDS011;60138;55.808;37.078;2022-08-21T09:43:56;26.17;;;14.32;;
70213;SDS011;60138;55.808;37.078;2022-08-21T09:46:24;29.05;;;14.43;;
70213;SDS011;60138;55.808;37.078;2022-08-21T09:48:53;25.17;;;14.60;;
70213;SDS011;60138;55.808;37.078;2022-08-21T09:51:22;28.35;;;15.30;;
70213;SDS011;60138;55.808;37.078;2022-08-21T09:59:11;30.55;;;14.65;;
70213;SDS011;60138;55.808;37.078;2022-08-21T10:02:02;29.77;;;14.40;;
70213;SDS011;60138;55.808;37.078;2022-08-21T10:04:49;24.45;;;14.80;;
70213;SDS011;60138;55.808;37.078;2022-08-21T10:07:23;25.33;;;15.30;;
70213;SDS011;60138;55.808;37.078;2022-08-21T10:09:58;29.38;;;14.45;;
70213;SDS011;60138;55.808;37.078;2022-08-21T10:20:45;28.53;;;14.60;;
70213;SDS011;60138;55.808;37.078;2022-08-21T10:26:52;24.13;;;14.48;;
70213;SDS011;60138;55.808;37.078;2022-08-21T10:32:08;27.65;;;15.18;;
70213;SDS011;60138;55.808;37.078;2022-08-21T10:34:56;25.10;;;13.33;;
70213;SDS011;60138;55.808;37.078;2022-08-21T10:40:42;22.02;;;12.20;;
70213;SDS011;60138;55.808;37.078;2022-08-21T10:49:14;18.73;;;11.30;;
70213;SDS011;60138;55.808;37.078;2022-08-21T10:51:56;26.00;;;11.82;;
70213;SDS011;60138;55.808;37.078;2022-08-21T10:54:38;21.58;;;11.57;;
70213;SDS011;60138;55.808;37.078;2022-08-21T10:57:36;25.20;;;11.27;;
70213;SDS011;60138;55.808;37.078;2022-08-21T11:00:17;19.48;;;10.00;;
70213;SDS011;60138;55.808;37.078;2022-08-21T11:02:51;18.27;;;9.20;;
70213;SDS011;60138;55.808;37.078;2022-08-21T11:05:20;19.77;;;8.88;;
70213;SDS011;60138;55.808;37.078;2022-08-21T11:08:26;23.60;;;8.60;;
70213;SDS011;60138;55.808;37.078;2022-08-21T11:10:48;19.58;;;9.38;;
70213;SDS011;60138;55.808;37.078;2022-08-21T11:16:37;24.37;;;9.77;;
70213;SDS011;60138;55.808;37.078;2022-08-21T11:19:09;18.13;;;8.75;;
70213;SDS011;60138;55.808;37.078;2022-08-21T11:24:44;18.63;;;7.28;;
70213;SDS011;60138;55.808;37.078;2022-08-21T11:27:43;18.58;;;5.72;;
70213;SDS011;60138;55.808;37.078;2022-08-21T11:30:14;18.10;;;6.10;;
70213;SDS011;60138;55.808;37.078;2022-08-21T11:40:34;15.43;;;5.30;;
70213;SDS011;60138;55.808;37.078;2022-08-21T11:45:54;19.60;;;4.72;;
70213;SDS011;60138;55.808;37.078;2022-08-21T11:51:49;19.75;;;5.28;;
70213;SDS011;60138;55.808;37.078;2022-08-21T11:54:39;19.25;;;4.75;;
70213;SDS011;60138;55.808;37.078;2022-08-21T11:57:29;18.40;;;5.23;;
70213;SDS011;60138;55.808;37.078;2022-08-21T12:02:39;14.45;;;3.63;;
70213;SDS011;60138;55.808;37.078;2022-08-21T12:05:11;15.93;;;3.78;;
70213;SDS011;60138;55.808;37.078;2022-08-21T12:10:58;11.47;;;3.40;;
70213;SDS011;60138;55.808;37.078;2022-08-21T12:13:28;11.85;;;3.42;;
70213;SDS011;60138;55.808;37.078;2022-08-21T12:18:36;13.02;;;3.40;;
70213;SDS011;60138;55.808;37.078;2022-08-21T12:21:22;10.73;;;3.70;;
70213;SDS011;60138;55.808;37.078;2022-08-21T12:23:59;17.05;;;3.65;;
70213;SDS011;60138;55.808;37.078;2022-08-21T12:26:53;18.75;;;4.15;;
70213;SDS011;60138;55.808;37.078;2022-08-21T12:31:48;15.17;;;3.73;;
70213;SDS011;60138;55.808;37.078;2022-08-21T12:34:14;10.23;;;3.58;;
70213;SDS011;60138;55.808;37.078;2022-08-21T12:36:49;12.00;;;4.25;;
70213;SDS011;60138;55.808;37.078;2022-08-21T12:39:22;12.20;;;4.50;;
70213;SDS011;60138;55.808;37.078;2022-08-21T12:41:57;18.17;;;4.70;;
70213;SDS011;60138;55.808;37.078;2022-08-21T12:44:34;17.60;;;5.05;;
70213;SDS011;60138;55.808;37.078;2022-08-21T12:47:22;13.65;;;4.90;;
70213;SDS011;60138;55.808;37.078;2022-08-21T12:53:04;14.02;;;5.05;;
70213;SDS011;60138;55.808;37.078;2022-08-21T12:55:43;16.10;;;4.50;;
70213;SDS011;60138;55.808;37.078;2022-08-21T12:58:19;12.25;;;3.90;;
70213;SDS011;60138;55.808;37.078;2022-08-21T13:00:48;14.40;;;3.20;;
70213;SDS011;60138;55.808;37.078;2022-08-21T13:03:19;22.38;;;3.50;;
70213;SDS011;60138;55.808;37.078;2022-08-21T13:05:47;15.73;;;3.17;;
70213;SDS011;60138;55.808;37.078;2022-08-21T13:08:13;16.00;;;2.70;;
70213;SDS011;60138;55.808;37.078;2022-08-21T13:10:42;11.38;;;3.00;;
70213;SDS011;60138;55.808;37.078;2022-08-21T13:13:12;15.25;;;2.60;;
70213;SDS011;60138;55.808;37.078;2022-08-21T13:15:45;8.40;;;2.47;;
70213;SDS011;60138;55.808;37.078;2022-08-21T13:18:19;15.55;;;2.83;;
70213;SDS011;60138;55.808;37.078;2022-08-21T13:20:47;10.33;;;3.43;;
70213;SDS011;60138;55.808;37.078;2022-08-21T13:23:29;15.25;;;2.60;;
70213;SDS011;60138;55.808;37.078;2022-08-21T13:25:55;14.93;;;2.50;;
70213;SDS011;60138;55.808;37.078;2022-08-21T13:28:22;14.57;;;2.47;;
70213;SDS011;60138;55.808;37.078;2022-08-21T13:30:49;11.63;;;2.28;;
70213;SDS011;60138;55.808;37.078;2022-08-21T13:33:18;10.80;;;2.37;;
70213;SDS011;60138;55.808;37.078;2022-08-21T13:35:50;16.90;;;2.90;;
70213;SDS011;60138;55.808;37.078;2022-08-21T13:38:31;8.90;;;2.08;;
70213;SDS011;60138;55.808;37.078;2022-08-21T13:41:02;15.00;;;3.00;;
70213;SDS011;60138;55.808;37.078;2022-08-21T13:43:34;9.07;;;2.42;;
70213;SDS011;60138;55.808;37.078;2022-08-21T13:46:01;16.13;;;2.13;;
70213;SDS011;60138;55.808;37.078;2022-08-21T13:48:33;8.90;;;2.15;;
70213;SDS011;60138;55.808;37.078;2022-08-21T13:50:59;14.80;;;2.42;;
70213;SDS011;60138;55.808;37.078;2022-08-21T13:53:34;11.48;;;2.40;;
70213;SDS011;60138;55.808;37.078;2022-08-21T13:58:48;12.50;;;2.90;;
70213;SDS011;60138;55.808;37.078;2022-08-21T14:01:22;11.65;;;3.10;;
70213;SDS011;60138;55.808;37.078;2022-08-21T14:03:51;18.27;;;3.28;;
70213;SDS011;60138;55.808;37.078;2022-08-21T14:06:21;14.63;;;3.47;;
70213;SDS011;60138;55.808;37.078;2022-08-21T14:08:53;13.57;;;3.33;;
70213;SDS011;60138;55.808;37.078;2022-08-21T14:11:24;15.48;;;3.58;;
70213;SDS011;60138;55.808;37.078;2022-08-21T14:14:02;20.20;;;3.50;;
70213;SDS011;60138;55.808;37.078;2022-08-21T14:16:42;10.85;;;3.38;;
70213;SDS011;60138;55.808;37.078;2022-08-21T14:19:21;15.25;;;3.75;;
70213;SDS011;60138;55.808;37.078;2022-08-21T14:21:52;12.17;;;3.63;;
70213;SDS011;60138;55.808;37.078;2022-08-21T14:26:51;17.50;;;4.10;;
70213;SDS011;60138;55.808;37.078;2022-08-21T14:29:20;13.85;;;3.42;;
70213;SDS011;60138;55.808;37.078;2022-08-21T14:31:50;12.10;;;3.90;;
70213;SDS011;60138;55.808;37.078;2022-08-21T14:34:18;12.20;;;3.90;;
70213;SDS011;60138;55.808;37.078;2022-08-21T14:36:44;15.32;;;3.78;;
70213;SDS011;60138;55.808;37.078;2022-08-21T14:39:10;15.13;;;3.80;;
70213;SDS011;60138;55.808;37.078;2022-08-21T14:41:36;16.05;;;3.88;;
70213;SDS011;60138;55.808;37.078;2022-08-21T14:44:02;13.40;;;3.60;;
70213;SDS011;60138;55.808;37.078;2022-08-21T14:46:30;13.75;;;3.80;;
70213;SDS011;60138;55.808;37.078;2022-08-21T14:48:56;10.98;;;3.05;;
70213;SDS011;60138;55.808;37.078;2022-08-21T14:51:21;10.27;;;3.63;;
70213;SDS011;60138;55.808;37.078;2022-08-21T14:53:47;12.23;;;4.07;;
70213;SDS011;60138;55.808;37.078;2022-08-21T14:56:13;11.18;;;2.90;;
70213;SDS011;60138;55.808;37.078;2022-08-21T14:58:40;9.82;;;3.00;;
70213;SDS011;60138;55.808;37.078;2022-08-21T15:01:08;11.95;;;3.03;;
70213;SDS011;60138;55.808;37.078;2022-08-21T15:03:36;9.90;;;2.70;;
70213;SDS011;60138;55.808;37.078;2022-08-21T15:06:03;14.70;;;2.80;;
70213;SDS011;60138;55.808;37.078;2022-08-21T15:08:29;11.85;;;3.28;;
70213;SDS011;60138;55.808;37.078;2022-08-21T15:10:55;12.68;;;2.70;;
70213;SDS011;60138;55.808;37.078;2022-08-21T15:13:22;12.23;;;2.80;;
70213;SDS011;60138;55.808;37.078;2022-08-21T15:15:49;10.93;;;2.50;;
70213;SDS011;60138;55.808;37.078;2022-08-21T15:18:16;10.00;;;3.47;;
70213;SDS011;60138;55.808;37.078;2022-08-21T15:20:41;11.27;;;3.00;;
70213;SDS011;60138;55.808;37.078;2022-08-21T15:23:07;10.33;;;3.37;;
70213;SDS011;60138;55.808;37.078;2022-08-21T15:25:34;10.85;;;3.70;;
70213;SDS011;60138;55.808;37.078;2022-08-21T15:28:01;11.55;;;3.10;;
70213;SDS011;60138;55.808;37.078;2022-08-21T15:30:28;9.73;;;3.33;;
70213;SDS011;60138;55.808;37.078;2022-08-21T15:32:55;15.30;;;3.37;;
70213;SDS011;60138;55.808;37.078;2022-08-21T15:35:21;12.07;;;3.70;;
70213;SDS011;60138;55.808;37.078;2022-08-21T15:37:47;10.93;;;3.85;;
70213;SDS011;60138;55.808;37.078;2022-08-21T15:40:12;13.38;;;3.92;;
70213;SDS011;60138;55.808;37.078;2022-08-21T15:42:39;15.10;;;4.53;;
70213;SDS011;60138;55.808;37.078;2022-08-21T15:45:05;9.02;;;4.30;;
70213;SDS011;60138;55.808;37.078;2022-08-21T15:47:32;20.05;;;4.68;;
70213;SDS011;60138;55.808;37.078;2022-08-21T15:50:08;12.10;;;4.25;;
70213;SDS011;60138;55.808;37.078;2022-08-21T15:52:37;9.57;;;4.27;;
70213;SDS011;60138;55.808;37.078;2022-08-21T15:55:04;14.82;;;4.72;;